Time;durP1;ratioP1;P1;durP2;ratioP2;P2;SDS_P1;SDS_P2;PMS_P1;PMS_P2;Temp;Humidity;BMP_temperature;BMP_pressure;BME280_temperature;BME280_humidity;BME280_pressure;Samples;Min_cycle;Max_cycle;Signal;HPM_P1;HPM_P2
2020/12/03 00:00:52;;;;;;;4.28;1.50;;;;;;;5.84;83.51;100321.47;5070450;28;20021;-87
2020/12/03 00:03:25;;;;;;;6.28;1.48;;;;;;;5.84;83.42;100318.88;5064849;28;20426;-87
2020/12/03 00:05:54;;;;;;;6.88;1.40;;;;;;;5.87;83.55;100318.66;5073976;28;20028;-86
2020/12/03 00:08:19;;;;;;;7.03;1.50;;;;;;;5.86;83.49;100299.63;5074036;28;20032;-86
2020/12/03 00:10:45;;;;;;;5.15;1.33;;;;;;;5.85;83.61;100295.38;5074005;28;20612;-89
2020/12/03 00:13:18;;;;;;;7.55;1.70;;;;;;;5.86;83.67;100280.56;5074331;28;20020;-88
2020/12/03 00:15:44;;;;;;;7.18;1.48;;;;;;;5.83;83.93;100268.59;5074443;28;20024;-88
2020/12/03 00:18:10;;;;;;;7.20;1.60;;;;;;;5.83;83.52;100265.16;5069089;28;20021;-88
2020/12/03 00:20:36;;;;;;;5.65;1.65;;;;;;;5.81;83.83;100260.09;5053987;28;20031;-89
2020/12/03 00:23:03;;;;;;;7.28;2.25;;;;;;;5.79;83.89;100253.34;5053075;28;20029;-88
2020/12/03 00:25:28;;;;;;;7.78;1.60;;;;;;;5.78;83.98;100241.28;5055069;28;20064;-88
2020/12/03 00:27:56;;;;;;;7.80;1.50;;;;;;;5.76;83.90;100248.41;5054664;28;20044;-88
2020/12/03 00:30:22;;;;;;;8.40;1.48;;;;;;;5.76;83.98;100233.59;5057697;28;20032;-88
2020/12/03 00:32:49;;;;;;;4.38;1.27;;;;;;;5.75;83.86;100226.75;5065439;28;20025;-88
2020/12/03 00:35:16;;;;;;;6.22;1.50;;;;;;;5.72;83.84;100212.22;5057840;28;20040;-88
2020/12/03 00:37:42;;;;;;;5.43;1.52;;;;;;;5.72;83.65;100209.59;5054939;28;20052;-89
2020/12/03 00:40:08;;;;;;;5.28;1.10;;;;;;;5.70;84.00;100206.31;5054601;28;20076;-89
2020/12/03 00:42:33;;;;;;;8.70;1.40;;;;;;;5.70;83.88;100192.47;5055768;28;20106;-89
2020/12/03 00:44:59;;;;;;;8.13;1.30;;;;;;;5.71;83.83;100194.13;5056411;28;20055;-88
2020/12/03 00:47:24;;;;;;;5.10;1.40;;;;;;;5.69;84.01;100189.03;5057103;28;20108;-89
2020/12/03 00:49:50;;;;;;;5.15;1.50;;;;;;;5.70;83.96;100182.06;5057528;28;20116;-89
2020/12/03 00:52:15;;;;;;;10.55;1.42;;;;;;;5.67;84.05;100171.88;5057552;28;20041;-89
2020/12/03 00:54:42;;;;;;;6.78;2.00;;;;;;;5.69;84.10;100177.81;5056343;28;20479;-88
2020/12/03 00:57:07;;;;;;;7.03;1.35;;;;;;;5.67;84.14;100170.09;5056124;28;20079;-89
2020/12/03 00:59:37;;;;;;;4.05;1.15;;;;;;;5.66;83.96;100167.63;5053846;28;20021;-88
2020/12/03 01:02:06;;;;;;;3.47;1.08;;;;;;;5.65;83.91;100145.97;5053109;28;20086;-88
2020/12/03 01:04:31;;;;;;;4.72;1.10;;;;;;;5.65;83.99;100137.34;5056906;28;20029;-88
2020/12/03 01:06:57;;;;;;;2.55;0.80;;;;;;;5.62;84.06;100122.81;5057711;28;20017;-89
2020/12/03 01:09:22;;;;;;;5.20;0.93;;;;;;;5.61;83.86;100117.72;5058388;28;20586;-88
2020/12/03 01:11:48;;;;;;;4.90;0.80;;;;;;;5.60;83.81;100103.91;5058642;28;20472;-89
2020/12/03 01:14:13;;;;;;;4.47;1.08;;;;;;;5.60;83.70;100106.50;5059214;28;20028;-89
2020/12/03 01:16:38;;;;;;;3.03;0.63;;;;;;;5.58;83.70;100110.19;5070041;28;20029;-88
2020/12/03 01:19:04;;;;;;;3.28;0.65;;;;;;;5.58;83.62;100100.59;5056028;28;20535;-89
2020/12/03 01:21:29;;;;;;;2.22;0.90;;;;;;;5.59;83.45;100080.59;5053092;28;20096;-85
2020/12/03 01:23:55;;;;;;;4.88;1.10;;;;;;;5.59;83.63;100085.81;5053440;28;20083;-89
2020/12/03 01:26:20;;;;;;;3.80;0.75;;;;;;;5.61;83.40;100073.50;5054093;28;20158;-88
2020/12/03 01:28:46;;;;;;;4.10;0.90;;;;;;;5.60;83.38;100054.47;5052821;28;20032;-88
2020/12/03 01:31:11;;;;;;;4.70;1.35;;;;;;;5.62;83.39;100049.13;5052526;28;20060;-88
2020/12/03 01:33:40;;;;;;;6.53;1.20;;;;;;;5.62;83.34;100047.38;5052569;28;20032;-87
2020/12/03 01:36:07;;;;;;;6.47;1.10;;;;;;;5.62;83.25;100034.34;5052026;28;20032;-88
2020/12/03 01:38:33;;;;;;;3.92;1.02;;;;;;;5.61;83.40;100024.91;5052403;28;20036;-88
2020/12/03 01:40:58;;;;;;;5.75;1.33;;;;;;;5.60;83.09;100012.03;5052100;28;20045;-88
2020/12/03 01:43:24;;;;;;;6.38;1.05;;;;;;;5.59;83.00;100018.16;5052013;28;20500;-88
2020/12/03 01:45:57;;;;;;;7.97;1.20;;;;;;;5.56;83.01;100010.63;5051944;28;20403;-88
2020/12/03 01:48:34;;;;;;;8.38;1.10;;;;;;;5.53;83.11;100005.69;5052315;28;20392;-88
2020/12/03 01:51:03;;;;;;;6.60;1.27;;;;;;;5.53;82.80;100008.28;5051748;28;20029;-87
2020/12/03 01:53:28;;;;;;;5.50;0.95;;;;;;;5.53;83.00;99992.69;5052061;28;20024;-88
2020/12/03 01:55:55;;;;;;;6.93;1.10;;;;;;;5.50;82.90;99988.53;5051720;28;20048;-88
2020/12/03 01:58:26;;;;;;;6.63;1.00;;;;;;;5.49;82.91;99971.25;5053084;28;20033;-88
2020/12/03 02:00:52;;;;;;;6.32;0.93;;;;;;;5.50;82.67;99975.50;5063114;28;20056;-87
2020/12/03 02:03:17;;;;;;;5.75;0.88;;;;;;;5.49;82.82;99960.03;5052343;28;20025;-88
2020/12/03 02:05:43;;;;;;;5.32;0.93;;;;;;;5.48;82.85;99948.81;5052107;28;20067;-88
2020/12/03 02:08:08;;;;;;;5.10;0.80;;;;;;;5.47;82.91;99938.53;5051828;28;20498;-88
2020/12/03 02:10:33;;;;;;;6.72;0.90;;;;;;;5.44;82.85;99928.38;5051753;28;20071;-89
2020/12/03 02:12:59;;;;;;;4.28;1.00;;;;;;;5.42;82.98;99931.13;5050677;28;20479;-88
2020/12/03 02:15:24;;;;;;;3.53;0.73;;;;;;;5.40;83.04;99920.84;5051346;28;20032;-87
2020/12/03 02:17:50;;;;;;;2.72;0.70;;;;;;;5.39;82.72;99920.97;5051666;28;20079;-88
2020/12/03 02:20:18;;;;;;;4.07;0.60;;;;;;;5.36;83.10;99909.03;5051655;28;20029;-88
2020/12/03 02:22:44;;;;;;;3.47;1.15;;;;;;;5.33;83.11;99906.69;5051496;28;20025;-88
2020/12/03 02:25:10;;;;;;;2.88;0.55;;;;;;;5.33;83.44;99911.06;5051967;28;20385;-89
2020/12/03 02:27:37;;;;;;;2.92;0.52;;;;;;;5.29;83.49;99892.28;5051285;28;20146;-89
2020/12/03 02:30:05;;;;;;;3.17;0.98;;;;;;;5.28;83.38;99882.03;5051536;28;20094;-88
2020/12/03 02:32:30;;;;;;;4.22;0.60;;;;;;;5.24;83.50;99881.44;5051698;28;20033;-88
2020/12/03 02:34:56;;;;;;;4.18;0.68;;;;;;;5.25;83.65;99870.09;5051737;28;20036;-88
2020/12/03 02:37:21;;;;;;;2.72;0.60;;;;;;;5.25;83.51;99872.69;5052177;28;20033;-88
2020/12/03 02:39:47;;;;;;;1.73;0.50;;;;;;;5.23;83.80;99872.00;5053676;28;20040;-89
2020/12/03 02:42:14;;;;;;;4.38;0.70;;;;;;;5.23;83.59;99861.59;5058299;28;20097;-89
2020/12/03 02:44:42;;;;;;;2.45;0.60;;;;;;;5.20;84.13;99851.44;5058334;28;20056;-87
2020/12/03 02:47:08;;;;;;;2.30;0.52;;;;;;;5.19;84.08;99848.97;5059542;28;20031;-87
2020/12/03 02:49:35;;;;;;;4.57;0.88;;;;;;;5.14;84.06;99840.72;5054848;28;20072;-87
2020/12/03 02:52:01;;;;;;;2.20;0.50;;;;;;;5.12;84.28;99827.88;5053135;28;20022;-86
2020/12/03 02:54:27;;;;;;;2.85;0.47;;;;;;;5.09;84.35;99825.53;5052652;28;20021;-89
2020/12/03 02:56:52;;;;;;;3.30;0.65;;;;;;;5.05;84.40;99821.53;5053222;28;20028;-88
2020/12/03 02:59:17;;;;;;;4.57;0.57;;;;;;;5.01;84.48;99813.16;5052366;28;20099;-88
2020/12/03 03:01:43;;;;;;;3.65;0.55;;;;;;;4.97;84.93;99803.13;5051327;28;20029;-88
2020/12/03 03:04:08;;;;;;;3.42;0.65;;;;;;;4.97;84.67;99803.13;5051547;28;20503;-88
2020/12/03 03:06:35;;;;;;;1.55;0.50;;;;;;;4.94;84.58;99787.81;5051597;28;20502;-89
2020/12/03 03:09:02;;;;;;;2.55;0.50;;;;;;;4.93;84.84;99778.38;5051730;28;20021;-89
2020/12/03 03:11:28;;;;;;;2.80;0.77;;;;;;;4.88;85.16;99773.53;5056117;28;20072;-90
2020/12/03 03:13:57;;;;;;;1.75;0.50;;;;;;;4.88;85.11;99770.09;5052610;28;20484;-89
2020/12/03 03:16:23;;;;;;;1.48;0.52;;;;;;;4.84;85.20;99761.75;5051874;28;20028;-89
2020/12/03 03:18:48;;;;;;;1.38;0.47;;;;;;;4.82;85.33;99753.25;5051749;28;20038;-89
2020/12/03 03:21:15;;;;;;;5.47;1.02;;;;;;;4.80;85.47;99744.78;5051279;28;20048;-89
2020/12/03 03:23:40;;;;;;;1.73;0.50;;;;;;;4.78;85.24;99734.50;5052358;28;20060;-88
2020/12/03 03:26:06;;;;;;;3.00;0.47;;;;;;;4.77;85.60;99725.06;5054787;28;20458;-89
2020/12/03 03:28:31;;;;;;;3.08;0.55;;;;;;;4.76;85.89;99723.41;5055153;28;20058;-89
2020/12/03 03:30:57;;;;;;;1.35;0.40;;;;;;;4.75;86.01;99706.19;5055559;28;20025;-88
2020/12/03 03:33:22;;;;;;;1.80;0.40;;;;;;;4.75;86.10;99689.78;5055301;28;20119;-87
2020/12/03 03:35:48;;;;;;;2.97;0.40;;;;;;;4.73;86.19;99682.13;5055035;28;20549;-90
2020/12/03 03:38:14;;;;;;;2.80;0.40;;;;;;;4.72;86.18;99683.03;5054912;28;20025;-89
2020/12/03 03:40:40;;;;;;;2.85;0.50;;;;;;;4.71;86.11;99672.78;5054569;28;20522;-89
2020/12/03 03:43:06;;;;;;;1.83;0.60;;;;;;;4.70;86.83;99665.94;5054811;28;20132;-89
2020/12/03 03:45:32;;;;;;;3.08;0.55;;;;;;;4.69;86.60;99649.53;5055371;28;20052;-88
2020/12/03 03:48:00;;;;;;;1.88;0.50;;;;;;;4.69;86.56;99641.75;5060270;28;20501;-88
2020/12/03 03:50:26;;;;;;;1.80;0.50;;;;;;;4.69;86.91;99633.94;5055126;28;20025;-88
2020/12/03 03:52:51;;;;;;;2.85;0.60;;;;;;;4.70;86.89;99626.97;5054897;28;20044;-89
2020/12/03 03:55:17;;;;;;;4.50;0.70;;;;;;;4.70;86.84;99620.00;5054809;28;20555;-88
2020/12/03 03:57:42;;;;;;;2.70;0.60;;;;;;;4.70;86.99;99625.19;5054316;28;20082;-88
2020/12/03 04:00:08;;;;;;;1.98;0.50;;;;;;;4.69;87.41;99607.97;5054503;28;20114;-89
2020/12/03 04:02:33;;;;;;;1.15;0.50;;;;;;;4.67;87.44;99599.50;5054690;28;20167;-89
2020/12/03 04:04:59;;;;;;;1.77;0.60;;;;;;;4.68;87.16;99590.75;5054701;28;20079;-89
2020/12/03 04:07:24;;;;;;;3.67;0.70;;;;;;;4.67;87.36;99589.09;5054504;28;20021;-88
2020/12/03 04:09:50;;;;;;;4.45;0.80;;;;;;;4.66;87.53;99569.28;5054328;28;20025;-88
2020/12/03 04:12:15;;;;;;;1.40;0.40;;;;;;;4.66;87.53;99571.06;5054207;28;20013;-89
2020/12/03 04:14:41;;;;;;;4.70;0.70;;;;;;;4.65;87.69;99564.22;5054488;28;20039;-89
2020/12/03 04:17:07;;;;;;;3.03;0.60;;;;;;;4.63;87.62;99561.75;5054007;28;20047;-89
2020/12/03 04:19:32;;;;;;;3.00;0.63;;;;;;;4.64;87.73;99549.59;5054002;28;20488;-89
2020/12/03 04:21:58;;;;;;;2.97;0.95;;;;;;;4.64;87.73;99544.38;5054190;28;20048;-89
2020/12/03 04:24:24;;;;;;;1.05;0.50;;;;;;;4.63;87.70;99540.97;5053829;28;20427;-89
2020/12/03 04:26:49;;;;;;;4.18;0.52;;;;;;;4.63;87.64;99530.59;5054093;28;20029;-90
2020/12/03 04:29:15;;;;;;;2.30;0.70;;;;;;;4.61;88.00;99537.69;5053921;28;20112;-90
2020/12/03 04:31:44;;;;;;;3.20;0.60;;;;;;;4.61;87.98;99522.09;5054502;28;20021;-90
2020/12/03 04:34:10;;;;;;;2.45;0.50;;;;;;;4.62;87.86;99523.75;5053531;28;20079;-91
2020/12/03 04:36:36;;;;;;;0.50;0.30;;;;;;;4.61;87.94;99503.09;5053411;28;20132;-89
2020/12/03 04:39:03;;;;;;;2.53;0.50;;;;;;;4.60;88.11;99493.66;5053754;28;20084;-89
2020/12/03 04:41:28;;;;;;;3.78;0.50;;;;;;;4.60;87.86;99499.69;5054314;28;20045;-90
2020/12/03 04:44:03;;;;;;;2.13;0.57;;;;;;;4.59;88.02;99485.06;5062772;28;20032;-89
2020/12/03 04:46:39;;;;;;;0.43;0.30;;;;;;;4.59;88.04;99481.63;5069796;28;20021;-89
2020/12/03 04:49:23;;;;;;;1.85;0.50;;;;;;;4.57;88.12;99468.75;5070037;28;20091;-89
2020/12/03 04:51:57;;;;;;;1.42;0.32;;;;;;;4.57;88.26;99468.75;5067477;28;20079;-89
2020/12/03 04:54:41;;;;;;;1.27;0.35;;;;;;;4.58;88.36;99459.22;5056678;28;20464;-89
2020/12/03 04:57:30;;;;;;;0.20;0.20;;;;;;;4.57;88.33;99444.56;5054519;28;20033;-88
2020/12/03 05:00:36;;;;;;;1.45;0.35;;;;;;;4.54;88.06;99437.03;5054023;28;20274;-89
2020/12/03 05:03:37;;;;;;;1.38;0.50;;;;;;;4.51;88.17;99425.97;5053458;28;20025;-89
2020/12/03 05:06:18;;;;;;;1.65;0.57;;;;;;;4.49;88.54;99419.28;5053350;28;20025;-89
2020/12/03 05:08:58;;;;;;;2.70;0.40;;;;;;;4.48;88.56;99417.63;5053381;28;20387;-89
2020/12/03 05:11:33;;;;;;;1.15;0.30;;;;;;;4.45;88.62;99397.97;5053290;28;20033;-89
2020/12/03 05:14:05;;;;;;;1.27;0.30;;;;;;;4.41;88.68;99393.16;5053255;28;20107;-88
2020/12/03 05:16:55;;;;;;;1.27;0.38;;;;;;;4.37;88.70;99374.44;5053354;28;20032;-89
2020/12/03 05:19:41;;;;;;;1.02;0.30;;;;;;;4.36;88.66;99372.78;5053116;28;20017;-90
2020/12/03 05:22:26;;;;;;;1.83;0.40;;;;;;;4.33;88.85;99367.03;5053047;28;20033;-89
2020/12/03 05:24:52;;;;;;;1.70;0.50;;;;;;;4.31;89.06;99355.97;5052614;28;20028;-89
2020/12/03 05:27:31;;;;;;;1.35;0.40;;;;;;;4.28;88.72;99349.28;5065347;28;20040;-90
2020/12/03 05:30:00;;;;;;;2.75;0.40;;;;;;;4.26;88.84;99337.38;5061137;28;20029;-90
2020/12/03 05:32:25;;;;;;;1.13;0.30;;;;;;;4.21;89.12;99330.81;5067728;28;20025;-88
2020/12/03 05:34:52;;;;;;;1.92;0.52;;;;;;;4.20;89.03;99325.75;5057206;28;20032;-89
2020/12/03 05:37:21;;;;;;;1.67;0.40;;;;;;;4.17;89.10;99319.06;5056377;28;20115;-89
2020/12/03 05:39:53;;;;;;;3.88;0.70;;;;;;;4.15;89.15;99313.19;5054826;28;20028;-89
2020/12/03 05:42:28;;;;;;;1.08;0.40;;;;;;;4.16;89.02;99299.25;5054238;28;20029;-89
2020/12/03 05:44:56;;;;;;;1.15;0.40;;;;;;;4.15;89.30;99302.00;5053314;28;20033;-89
2020/12/03 05:47:29;;;;;;;0.30;0.25;;;;;;;4.15;89.22;99302.00;5052605;28;20024;-88
2020/12/03 05:50:03;;;;;;;0.90;0.32;;;;;;;4.15;89.09;99291.59;5052556;28;20036;-89
2020/12/03 05:52:30;;;;;;;0.98;0.40;;;;;;;4.13;89.37;99283.13;5052536;28;20040;-89
2020/12/03 05:55:02;;;;;;;0.60;0.40;;;;;;;4.12;89.04;99271.94;5052255;28;20107;-89
2020/12/03 05:57:36;;;;;;;0.65;0.40;;;;;;;4.11;89.26;99259.91;5052478;28;20121;-89
2020/12/03 06:00:16;;;;;;;0.65;0.40;;;;;;;4.10;89.36;99265.22;5056768;28;20033;-89
2020/12/03 06:03:13;;;;;;;0.90;0.45;;;;;;;4.10;89.60;99257.44;5051966;28;20033;-89
2020/12/03 06:05:56;;;;;;;1.15;0.40;;;;;;;4.10;89.50;99255.69;5051994;28;20029;-88
2020/12/03 06:08:46;;;;;;;0.90;0.40;;;;;;;4.11;89.40;99239.16;5051787;28;20029;-88
2020/12/03 06:11:48;;;;;;;2.28;0.52;;;;;;;4.11;89.30;99231.38;5052400;28;20484;-89
2020/12/03 06:14:31;;;;;;;2.17;0.75;;;;;;;4.11;89.49;99225.38;5038837;28;20386;-89
2020/12/03 06:17:23;;;;;;;3.88;0.73;;;;;;;4.10;89.41;99218.50;5052733;28;20053;-88
2020/12/03 06:20:27;;;;;;;0.77;0.50;;;;;;;4.10;89.66;99210.72;5052357;28;20025;-89
2020/12/03 06:22:53;;;;;;;0.85;0.40;;;;;;;4.06;89.63;99193.81;5052195;28;20475;-89
2020/12/03 06:25:33;;;;;;;1.60;0.40;;;;;;;4.04;89.55;99196.53;5052389;28;20139;-91
2020/12/03 06:28:30;;;;;;;1.92;0.70;;;;;;;4.02;89.51;99182.88;5065619;28;20048;-90
2020/12/03 06:31:10;;;;;;;2.03;0.52;;;;;;;4.03;89.51;99181.91;5054002;28;20052;-89
2020/12/03 06:33:44;;;;;;;1.98;0.70;;;;;;;4.01;89.78;99175.22;5052099;28;20036;-90
2020/12/03 06:36:40;;;;;;;0.65;0.40;;;;;;;4.00;89.72;99171.00;5056926;28;20033;-90
2020/12/03 06:39:18;;;;;;;1.08;0.50;;;;;;;3.98;89.80;99155.56;5052781;28;20042;-90
2020/12/03 06:42:07;;;;;;;1.38;0.63;;;;;;;3.99;89.69;99153.81;5052706;28;20385;-89
2020/12/03 06:44:54;;;;;;;1.67;0.50;;;;;;;3.98;89.75;99144.38;5053100;28;20465;-89
2020/12/03 06:47:47;;;;;;;1.65;0.40;;;;;;;3.99;89.81;99140.84;5053393;28;20043;-89
2020/12/03 06:50:46;;;;;;;1.17;0.70;;;;;;;3.98;89.66;99134.81;5061900;28;20043;-89
2020/12/03 06:53:37;;;;;;;2.85;0.60;;;;;;;3.97;89.62;99119.41;5056805;28;20037;-90
2020/12/03 06:56:21;;;;;;;2.30;0.90;;;;;;;3.97;89.86;99116.81;5066692;28;20021;-88
2020/12/03 06:59:07;;;;;;;2.13;1.00;;;;;;;3.95;89.75;99114.34;5056926;28;20029;-89
2020/12/03 07:02:04;;;;;;;3.15;1.30;;;;;;;3.97;89.63;99103.84;5057747;28;20036;-89
2020/12/03 07:04:57;;;;;;;1.95;0.75;;;;;;;3.98;89.65;99095.09;5057471;28;20044;-89
2020/12/03 07:07:41;;;;;;;2.38;0.95;;;;;;;3.95;89.80;99090.19;5058197;28;20086;-89
2020/12/03 07:10:43;;;;;;;3.38;1.20;;;;;;;3.93;89.90;99077.31;5066478;28;20029;-89
2020/12/03 07:13:20;;;;;;;1.65;0.90;;;;;;;3.94;89.74;99068.59;5056967;28;20108;-89
2020/12/03 07:16:27;;;;;;;2.50;1.00;;;;;;;3.94;89.75;99065.16;5056590;28;20136;-89
2020/12/03 07:19:37;;;;;;;0.88;0.45;;;;;;;3.92;89.81;99055.75;5058793;28;20017;-89
2020/12/03 07:22:13;;;;;;;1.92;0.73;;;;;;;3.92;89.83;99055.75;5049346;28;20171;-88
2020/12/03 07:24:41;;;;;;;1.48;0.60;;;;;;;3.90;89.84;99049.88;5056489;28;20028;-89
2020/12/03 07:27:09;;;;;;;1.45;0.77;;;;;;;3.88;89.74;99041.44;5058036;28;20428;-89
2020/12/03 07:29:41;;;;;;;1.27;0.70;;;;;;;3.86;90.37;99034.75;5058001;28;20025;-89
2020/12/03 07:32:23;;;;;;;0.98;0.80;;;;;;;3.83;89.80;99032.44;5058094;28;20051;-90
2020/12/03 07:35:02;;;;;;;2.63;1.02;;;;;;;3.80;89.82;99030.13;5070704;28;20033;-88
2020/12/03 07:37:33;;;;;;;1.95;0.90;;;;;;;3.78;90.01;99032.84;5071027;28;20029;-90
2020/12/03 07:39:59;;;;;;;3.08;1.00;;;;;;;3.77;89.98;99026.00;5076742;28;20013;-90
2020/12/03 07:42:25;;;;;;;1.45;0.90;;;;;;;3.75;90.09;99016.75;5067061;28;20040;-90
2020/12/03 07:44:53;;;;;;;2.67;1.23;;;;;;;3.74;90.12;99020.28;5058504;28;20103;-90
2020/12/03 07:47:38;;;;;;;2.65;1.50;;;;;;;3.73;89.94;99014.28;5068749;28;20029;-90
2020/12/03 07:50:18;;;;;;;1.63;1.05;;;;;;;3.68;89.97;99011.28;5072142;28;20040;-90
2020/12/03 07:52:43;;;;;;;1.75;1.08;;;;;;;3.68;90.08;99003.53;5059127;28;20477;-90
2020/12/03 07:55:21;;;;;;;3.83;1.48;;;;;;;3.65;90.01;98992.63;5057384;28;20119;-91
2020/12/03 07:57:50;;;;;;;2.50;1.40;;;;;;;3.65;90.20;98990.84;5056716;28;20035;-89
2020/12/03 08:00:43;;;;;;;4.45;1.52;;;;;;;3.63;89.96;98987.56;5059905;28;20029;-91
2020/12/03 08:03:09;;;;;;;2.78;1.33;;;;;;;3.63;89.95;98982.38;5054523;28;20037;-91
2020/12/03 08:05:43;;;;;;;4.45;1.42;;;;;;;3.66;89.97;98983.88;5058442;28;20164;-90
2020/12/03 08:08:21;;;;;;;3.28;1.67;;;;;;;3.64;90.04;98968.47;5058466;28;20594;-90
2020/12/03 08:10:47;;;;;;;4.18;1.50;;;;;;;3.66;90.09;98973.50;5055148;28;20037;-91
2020/12/03 08:13:29;;;;;;;2.60;1.48;;;;;;;3.66;89.78;98969.13;5055799;28;20357;-91
2020/12/03 08:16:30;;;;;;;3.25;1.40;;;;;;;3.67;89.86;98965.59;5056827;28;20021;-91
2020/12/03 08:19:28;;;;;;;3.08;1.42;;;;;;;3.69;89.84;98955.06;5057877;28;20060;-90
2020/12/03 08:21:54;;;;;;;3.70;1.50;;;;;;;3.71;89.63;98950.56;5052642;28;20037;-89
2020/12/03 08:24:27;;;;;;;2.72;1.30;;;;;;;3.73;89.68;98948.66;5057721;28;20017;-87
2020/12/03 08:27:03;;;;;;;2.83;1.33;;;;;;;3.73;89.74;98946.88;5055460;28;20108;-90
2020/12/03 08:29:37;;;;;;;3.13;1.30;;;;;;;3.73;89.74;98939.09;5061561;28;20016;-89
2020/12/03 08:32:02;;;;;;;2.25;1.20;;;;;;;3.72;89.66;98934.03;5061508;28;20471;-91
2020/12/03 08:34:35;;;;;;;5.20;1.60;;;;;;;3.70;89.67;98918.63;5056127;28;20051;-89
2020/12/03 08:37:02;;;;;;;4.53;1.40;;;;;;;3.72;89.63;98923.66;5056846;28;20021;-90
2020/12/03 08:39:28;;;;;;;3.15;1.35;;;;;;;3.74;89.72;98916.56;5055839;28;20028;-90
2020/12/03 08:41:56;;;;;;;3.30;1.63;;;;;;;3.77;89.60;98903.31;5054733;28;20037;-90
2020/12/03 08:44:23;;;;;;;5.00;1.90;;;;;;;3.80;89.59;98903.88;5055289;28;20033;-90
2020/12/03 08:46:50;;;;;;;3.65;1.88;;;;;;;3.81;89.52;98895.13;5055548;28;20029;-90
2020/12/03 08:49:23;;;;;;;5.63;2.30;;;;;;;3.80;89.60;98885.72;5054778;28;20086;-90
2020/12/03 08:51:50;;;;;;;3.13;2.00;;;;;;;3.82;89.47;98875.19;5056143;28;20033;-90
2020/12/03 08:54:16;;;;;;;3.33;1.85;;;;;;;3.82;89.55;98882.97;5056043;28;20389;-91
2020/12/03 08:56:45;;;;;;;4.35;1.77;;;;;;;3.81;89.91;98866.59;5058760;28;20448;-90
2020/12/03 08:59:17;;;;;;;3.65;2.05;;;;;;;3.81;89.63;98868.38;5059392;28;20079;-88
2020/12/03 09:01:52;;;;;;;4.00;2.00;;;;;;;3.81;89.65;98864.00;5057978;28;20112;-90
2020/12/03 09:04:24;;;;;;;5.28;2.30;;;;;;;3.82;89.72;98854.44;5056299;28;20035;-91
2020/12/03 09:06:52;;;;;;;4.28;2.00;;;;;;;3.83;89.66;98846.53;5055285;28;20472;-91
2020/12/03 09:09:19;;;;;;;6.10;2.53;;;;;;;3.86;89.59;98840.22;5056759;28;20037;-91
2020/12/03 09:11:46;;;;;;;5.68;2.30;;;;;;;3.88;89.64;98835.72;5055154;28;20120;-90
2020/12/03 09:14:14;;;;;;;6.90;2.60;;;;;;;3.92;89.65;98829.28;5055857;28;20068;-91
2020/12/03 09:16:43;;;;;;;4.22;2.05;;;;;;;3.93;89.63;98828.31;5075846;28;20032;-91
2020/12/03 09:19:08;;;;;;;5.50;2.40;;;;;;;3.95;89.59;98818.63;5080121;28;20024;-90
2020/12/03 09:21:36;;;;;;;6.47;2.20;;;;;;;4.01;89.46;98820.63;5079284;28;20025;-92
2020/12/03 09:24:04;;;;;;;4.63;2.65;;;;;;;4.06;89.26;98815.81;5081174;28;20124;-92
2020/12/03 09:26:33;;;;;;;5.18;2.15;;;;;;;4.11;89.32;98810.22;5080707;28;20028;-91
2020/12/03 09:29:03;;;;;;;5.93;2.55;;;;;;;4.16;89.34;98805.41;5078883;28;20119;-92
2020/12/03 09:31:35;;;;;;;9.32;2.60;;;;;;;4.21;89.40;98804.00;5078144;28;20021;-90
2020/12/03 09:34:03;;;;;;;5.88;2.50;;;;;;;4.31;89.20;98803.13;5076648;28;20051;-91
2020/12/03 09:36:33;;;;;;;7.13;2.78;;;;;;;4.39;88.94;98798.81;5077558;28;20028;-90
2020/12/03 09:38:59;;;;;;;5.82;2.38;;;;;;;4.45;88.86;98800.84;5079188;28;20024;-91
2020/12/03 09:41:26;;;;;;;4.75;1.98;;;;;;;4.51;88.86;98791.63;5091644;28;20040;-91
2020/12/03 09:43:55;;;;;;;5.07;1.55;;;;;;;4.54;88.84;98786.13;5090204;28;20017;-91
2020/12/03 09:46:25;;;;;;;4.03;1.38;;;;;;;4.58;88.67;98776.28;5094395;28;20021;-90
2020/12/03 09:48:54;;;;;;;2.15;0.90;;;;;;;4.59;88.70;98777.91;5086607;28;20028;-93
2020/12/03 09:51:21;;;;;;;5.25;2.17;;;;;;;4.58;88.58;98771.91;5082490;28;20021;-91
2020/12/03 09:53:50;;;;;;;5.22;1.60;;;;;;;4.60;88.44;98763.97;5082668;28;20089;-90
2020/12/03 09:56:18;;;;;;;2.70;1.10;;;;;;;4.58;88.47;98758.94;5090616;28;20066;-92
2020/12/03 09:58:47;;;;;;;2.72;1.35;;;;;;;4.57;88.43;98752.06;5077736;28;20043;-90
2020/12/03 10:01:14;;;;;;;3.75;1.50;;;;;;;4.54;88.29;98748.97;5055935;28;20023;-89
2020/12/03 10:04:18;;;;;;;3.30;1.80;;;;;;;4.51;88.24;98745.72;5054616;28;20021;-88
2020/12/03 10:06:58;;;;;;;3.83;1.40;;;;;;;4.50;88.21;98740.66;4992665;28;20050;-88
2020/12/03 10:09:50;;;;;;;2.70;1.50;;;;;;;4.50;88.23;98736.28;5064464;28;20039;-90
2020/12/03 10:12:42;;;;;;;7.20;1.90;;;;;;;4.50;88.16;98725.91;5031821;28;20095;-89
2020/12/03 10:15:16;;;;;;;4.15;1.70;;;;;;;4.54;88.30;98721.22;5053782;28;20033;-89
2020/12/03 10:18:03;;;;;;;3.63;1.50;;;;;;;4.55;88.16;98714.25;5053125;28;20078;-88
2020/12/03 10:20:29;;;;;;;2.70;1.42;;;;;;;4.53;88.12;98711.81;5052549;28;20031;-90
2020/12/03 10:23:29;;;;;;;3.17;1.70;;;;;;;4.51;88.00;98711.16;5053659;28;20025;-91
2020/12/03 10:26:16;;;;;;;3.28;1.77;;;;;;;4.47;87.80;98704.63;5053619;28;20021;-89
2020/12/03 10:29:05;;;;;;;3.28;1.70;;;;;;;4.47;87.83;98696.84;5063043;28;20037;-89
2020/12/03 10:31:31;;;;;;;2.60;1.40;;;;;;;4.47;87.94;98694.25;5054169;28;20060;-88
2020/12/03 10:34:00;;;;;;;3.15;1.60;;;;;;;4.45;87.79;98702.19;5059102;28;20079;-89
2020/12/03 10:36:34;;;;;;;7.72;1.60;;;;;;;4.39;87.94;98694.16;5056867;28;20047;-90
2020/12/03 10:39:02;;;;;;;3.25;1.98;;;;;;;4.38;87.82;98685.56;5055004;28;20111;-90
2020/12/03 10:41:36;;;;;;;3.95;1.70;;;;;;;4.37;87.69;98678.75;5054132;28;20051;-90
2020/12/03 10:44:05;;;;;;;3.80;2.33;;;;;;;4.38;87.77;98679.56;5055545;28;20025;-89
2020/12/03 10:46:37;;;;;;;3.42;1.98;;;;;;;4.36;87.80;98671.94;5054938;28;20059;-89
2020/12/03 10:49:03;;;;;;;5.70;2.53;;;;;;;4.37;88.00;98670.97;5054270;28;20041;-89
2020/12/03 10:51:29;;;;;;;5.53;2.40;;;;;;;4.30;87.85;98669.94;5058975;28;20013;-91
2020/12/03 10:53:55;;;;;;;3.45;2.00;;;;;;;4.18;87.83;98673.72;5059452;28;20029;-88
2020/12/03 10:56:26;;;;;;;5.40;2.10;;;;;;;4.19;87.83;98670.97;5062532;28;20094;-89
2020/12/03 10:59:18;;;;;;;4.53;2.63;;;;;;;4.21;87.86;98663.84;5059710;28;20025;-89
2020/12/03 11:01:49;;;;;;;4.28;2.30;;;;;;;4.25;87.88;98663.56;5062183;28;20032;-90
2020/12/03 11:04:16;;;;;;;5.00;3.00;;;;;;;4.28;87.61;98656.31;5058388;28;20032;-87
2020/12/03 11:06:42;;;;;;;8.30;3.50;;;;;;;4.31;87.84;98648.22;5057505;28;20037;-89
2020/12/03 11:09:19;;;;;;;7.25;3.20;;;;;;;4.36;87.54;98650.34;5054762;28;20040;-90
2020/12/03 11:11:47;;;;;;;5.95;2.90;;;;;;;4.37;87.75;98645.00;5054067;28;20116;-90
2020/12/03 11:14:14;;;;;;;7.18;3.40;;;;;;;4.41;87.46;98633.34;5053081;28;20028;-90
2020/12/03 11:17:02;;;;;;;6.93;3.58;;;;;;;4.44;87.51;98637.44;5055054;28;20115;-89
2020/12/03 11:19:32;;;;;;;5.32;3.20;;;;;;;4.41;87.55;98629.94;5054145;28;20029;-90
2020/12/03 11:22:16;;;;;;;13.63;3.95;;;;;;;4.42;87.49;98629.00;5053637;28;20025;-89
2020/12/03 11:24:51;;;;;;;6.85;3.58;;;;;;;4.43;87.82;98631.44;5054418;28;20037;-90
2020/12/03 11:27:22;;;;;;;;;;;;;;;4.44;87.75;98629.66;5053620;28;20092;-89
2020/12/03 11:29:48;;;;;;;6.75;3.92;;;;;;;4.44;87.36;98616.69;5053284;28;19912;-89
2020/12/03 11:32:47;;;;;;;11.77;5.22;;;;;;;4.44;87.52;98611.47;5053812;28;20141;-90
2020/12/03 11:35:22;;;;;;;8.85;4.20;;;;;;;4.47;87.86;98600.78;5053216;28;20098;-90
2020/12/03 11:37:55;;;;;;;10.70;4.45;;;;;;;4.45;87.96;98603.53;5052507;28;20063;-90
2020/12/03 11:40:37;;;;;;;11.73;4.43;;;;;;;4.47;87.72;98598.19;5052368;28;20045;-92
2020/12/03 11:46:19;;;;;;;8.73;4.03;;;;;;;4.45;87.86;98594.94;5059696;28;20376;-92
2020/12/03 11:48:52;;;;;;;10.70;4.32;;;;;;;4.44;87.74;98582.94;5065553;28;20101;-90
2020/12/03 11:51:32;;;;;;;9.77;4.65;;;;;;;4.46;87.91;98584.41;5068841;28;20055;-89
2020/12/03 11:54:08;;;;;;;9.35;4.03;;;;;;;4.46;87.93;98573.19;5073219;28;20049;-90
2020/12/03 11:56:38;;;;;;;8.32;3.53;;;;;;;4.39;88.00;98573.00;5059312;28;20036;-88
2020/12/03 11:59:20;;;;;;;6.40;3.20;;;;;;;4.36;87.84;98570.69;5058285;28;20021;-90
2020/12/03 12:01:50;;;;;;;7.70;2.90;;;;;;;4.37;87.74;98568.91;5074477;28;20052;-88
2020/12/03 12:04:18;;;;;;;6.05;2.97;;;;;;;4.38;87.67;98562.75;5061537;28;20102;-88
2020/12/03 12:07:04;;;;;;;4.57;2.20;;;;;;;4.34;87.40;98559.66;5055380;28;20052;-89
2020/12/03 12:09:47;;;;;;;4.97;2.20;;;;;;;4.29;87.64;98556.72;5055906;28;20075;-89